sensor_id;sensor_type;location;lat;lon;timestamp;P1;durP1;ratioP1;P2;durP2;ratioP2
15595;SDS011;7898;48.658;9.068;2022-07-29T00:00:50;12.45;;;11.35;;
15595;SDS011;7898;48.658;9.068;2022-07-29T00:03:17;11.52;;;10.43;;
15595;SDS011;7898;48.658;9.068;2022-07-29T00:05:45;13.07;;;10.68;;
15595;SDS011;7898;48.658;9.068;2022-07-29T00:08:12;11.35;;;10.30;;
15595;SDS011;7898;48.658;9.068;2022-07-29T00:10:40;13.02;;;11.75;;
15595;SDS011;7898;48.658;9.068;2022-07-29T00:13:07;11.25;;;10.13;;
15595;SDS011;7898;48.658;9.068;2022-07-29T00:15:34;12.20;;;10.75;;
15595;SDS011;7898;48.658;9.068;2022-07-29T00:18:01;12.27;;;10.98;;
15595;SDS011;7898;48.658;9.068;2022-07-29T00:20:28;11.30;;;10.10;;
15595;SDS011;7898;48.658;9.068;2022-07-29T00:22:56;13.27;;;11.85;;
15595;SDS011;7898;48.658;9.068;2022-07-29T00:25:23;14.48;;;11.98;;
15595;SDS011;7898;48.658;9.068;2022-07-29T00:27:50;12.65;;;11.45;;
15595;SDS011;7898;48.658;9.068;2022-07-29T00:30:17;12.90;;;11.68;;
15595;SDS011;7898;48.658;9.068;2022-07-29T00:32:44;13.27;;;11.90;;
15595;SDS011;7898;48.658;9.068;2022-07-29T00:35:11;12.90;;;11.65;;
15595;SDS011;7898;48.658;9.068;2022-07-29T00:37:56;12.68;;;11.45;;
15595;SDS011;7898;48.658;9.068;2022-07-29T00:40:23;12.55;;;11.45;;
15595;SDS011;7898;48.658;9.068;2022-07-29T00:42:51;12.60;;;11.40;;
15595;SDS011;7898;48.658;9.068;2022-07-29T00:45:18;12.73;;;11.48;;
15595;SDS011;7898;48.658;9.068;2022-07-29T00:47:47;15.90;;;10.73;;
15595;SDS011;7898;48.658;9.068;2022-07-29T00:50:13;11.60;;;10.50;;
15595;SDS011;7898;48.658;9.068;2022-07-29T00:52:41;14.02;;;11.25;;
15595;SDS011;7898;48.658;9.068;2022-07-29T00:55:11;12.48;;;11.32;;
15595;SDS011;7898;48.658;9.068;2022-07-29T00:57:41;10.98;;;9.98;;
15595;SDS011;7898;48.658;9.068;2022-07-29T01:00:09;10.73;;;9.73;;
15595;SDS011;7898;48.658;9.068;2022-07-29T01:02:37;10.80;;;9.57;;
15595;SDS011;7898;48.658;9.068;2022-07-29T01:05:05;13.82;;;10.07;;
15595;SDS011;7898;48.658;9.068;2022-07-29T01:07:32;11.05;;;9.32;;
15595;SDS011;7898;48.658;9.068;2022-07-29T01:10:02;10.25;;;9.25;;
15595;SDS011;7898;48.658;9.068;2022-07-29T01:12:32;9.10;;;8.30;;
15595;SDS011;7898;48.658;9.068;2022-07-29T01:15:00;9.18;;;8.27;;
15595;SDS011;7898;48.658;9.068;2022-07-29T01:17:31;10.35;;;9.20;;
15595;SDS011;7898;48.658;9.068;2022-07-29T01:20:03;10.65;;;9.63;;
15595;SDS011;7898;48.658;9.068;2022-07-29T01:22:46;9.75;;;8.95;;
15595;SDS011;7898;48.658;9.068;2022-07-29T01:25:29;10.77;;;9.73;;
15595;SDS011;7898;48.658;9.068;2022-07-29T01:28:29;9.77;;;8.43;;
15595;SDS011;7898;48.658;9.068;2022-07-29T01:31:16;10.27;;;8.43;;
15595;SDS011;7898;48.658;9.068;2022-07-29T01:33:50;9.55;;;8.65;;
15595;SDS011;7898;48.658;9.068;2022-07-29T01:36:25;12.68;;;8.65;;
15595;SDS011;7898;48.658;9.068;2022-07-29T01:38:58;9.40;;;8.50;;
15595;SDS011;7898;48.658;9.068;2022-07-29T01:41:29;9.85;;;8.90;;
15595;SDS011;7898;48.658;9.068;2022-07-29T01:44:01;9.38;;;8.43;;
15595;SDS011;7898;48.658;9.068;2022-07-29T01:46:34;10.43;;;9.52;;
15595;SDS011;7898;48.658;9.068;2022-07-29T01:49:06;8.93;;;7.97;;
15595;SDS011;7898;48.658;9.068;2022-07-29T01:51:38;9.98;;;9.05;;
15595;SDS011;7898;48.658;9.068;2022-07-29T01:54:10;10.75;;;9.68;;
15595;SDS011;7898;48.658;9.068;2022-07-29T01:56:42;10.32;;;8.68;;
15595;SDS011;7898;48.658;9.068;2022-07-29T01:59:12;10.13;;;8.93;;
15595;SDS011;7898;48.658;9.068;2022-07-29T02:01:40;10.55;;;9.43;;
15595;SDS011;7898;48.658;9.068;2022-07-29T02:04:10;10.90;;;8.73;;
15595;SDS011;7898;48.658;9.068;2022-07-29T02:06:38;10.75;;;9.30;;
15595;SDS011;7898;48.658;9.068;2022-07-29T02:09:08;10.48;;;9.57;;
15595;SDS011;7898;48.658;9.068;2022-07-29T02:11:38;10.18;;;9.13;;
15595;SDS011;7898;48.658;9.068;2022-07-29T02:14:08;10.02;;;9.02;;
15595;SDS011;7898;48.658;9.068;2022-07-29T02:16:38;10.15;;;9.20;;
15595;SDS011;7898;48.658;9.068;2022-07-29T02:19:07;11.00;;;10.00;;
15595;SDS011;7898;48.658;9.068;2022-07-29T02:21:36;10.80;;;9.73;;
15595;SDS011;7898;48.658;9.068;2022-07-29T02:24:05;10.30;;;9.38;;
15595;SDS011;7898;48.658;9.068;2022-07-29T02:26:34;11.77;;;10.13;;
15595;SDS011;7898;48.658;9.068;2022-07-29T02:29:01;10.77;;;9.77;;
15595;SDS011;7898;48.658;9.068;2022-07-29T02:31:29;10.45;;;9.38;;
15595;SDS011;7898;48.658;9.068;2022-07-29T02:34:01;9.55;;;8.65;;
15595;SDS011;7898;48.658;9.068;2022-07-29T02:36:29;10.48;;;9.38;;
15595;SDS011;7898;48.658;9.068;2022-07-29T02:38:57;10.60;;;9.50;;
15595;SDS011;7898;48.658;9.068;2022-07-29T02:41:27;9.80;;;8.80;;
15595;SDS011;7898;48.658;9.068;2022-07-29T02:43:56;9.77;;;8.88;;
15595;SDS011;7898;48.658;9.068;2022-07-29T02:46:29;9.15;;;8.23;;
15595;SDS011;7898;48.658;9.068;2022-07-29T02:49:02;9.80;;;8.68;;
15595;SDS011;7898;48.658;9.068;2022-07-29T02:51:37;9.48;;;8.32;;
15595;SDS011;7898;48.658;9.068;2022-07-29T02:54:09;9.77;;;8.88;;
15595;SDS011;7898;48.658;9.068;2022-07-29T02:56:37;9.95;;;9.00;;
15595;SDS011;7898;48.658;9.068;2022-07-29T02:59:07;9.55;;;8.75;;
15595;SDS011;7898;48.658;9.068;2022-07-29T03:01:36;9.68;;;8.88;;
15595;SDS011;7898;48.658;9.068;2022-07-29T03:04:09;9.82;;;8.85;;
15595;SDS011;7898;48.658;9.068;2022-07-29T03:06:39;9.38;;;8.45;;
15595;SDS011;7898;48.658;9.068;2022-07-29T03:09:08;9.18;;;8.48;;
15595;SDS011;7898;48.658;9.068;2022-07-29T03:11:38;9.85;;;8.95;;
15595;SDS011;7898;48.658;9.068;2022-07-29T03:14:05;9.32;;;8.52;;
15595;SDS011;7898;48.658;9.068;2022-07-29T03:16:33;9.57;;;8.70;;
15595;SDS011;7898;48.658;9.068;2022-07-29T03:19:02;8.23;;;7.47;;
15595;SDS011;7898;48.658;9.068;2022-07-29T03:21:31;9.07;;;8.18;;
15595;SDS011;7898;48.658;9.068;2022-07-29T03:23:59;8.95;;;7.90;;
15595;SDS011;7898;48.658;9.068;2022-07-29T03:26:26;9.63;;;8.63;;
15595;SDS011;7898;48.658;9.068;2022-07-29T03:28:54;9.07;;;8.27;;
15595;SDS011;7898;48.658;9.068;2022-07-29T03:31:21;8.85;;;8.02;;
15595;SDS011;7898;48.658;9.068;2022-07-29T03:33:48;10.68;;;8.57;;
15595;SDS011;7898;48.658;9.068;2022-07-29T03:36:14;9.48;;;8.60;;
15595;SDS011;7898;48.658;9.068;2022-07-29T03:38:43;9.23;;;8.40;;
15595;SDS011;7898;48.658;9.068;2022-07-29T03:41:12;10.23;;;9.20;;
15595;SDS011;7898;48.658;9.068;2022-07-29T03:43:40;10.40;;;8.30;;
15595;SDS011;7898;48.658;9.068;2022-07-29T03:46:08;10.18;;;8.57;;
15595;SDS011;7898;48.658;9.068;2022-07-29T03:48:39;9.77;;;8.70;;
15595;SDS011;7898;48.658;9.068;2022-07-29T03:51:10;9.25;;;8.38;;
15595;SDS011;7898;48.658;9.068;2022-07-29T03:53:37;8.50;;;7.63;;
15595;SDS011;7898;48.658;9.068;2022-07-29T03:56:05;8.30;;;7.45;;
15595;SDS011;7898;48.658;9.068;2022-07-29T03:58:34;8.55;;;7.45;;
15595;SDS011;7898;48.658;9.068;2022-07-29T04:01:01;10.15;;;7.57;;
15595;SDS011;7898;48.658;9.068;2022-07-29T04:03:28;9.80;;;8.35;;
15595;SDS011;7898;48.658;9.068;2022-07-29T04:06:00;9.85;;;8.90;;
15595;SDS011;7898;48.658;9.068;2022-07-29T04:08:27;8.23;;;7.53;;
15595;SDS011;7898;48.658;9.068;2022-07-29T04:10:54;8.65;;;7.88;;
15595;SDS011;7898;48.658;9.068;2022-07-29T04:13:23;8.20;;;7.45;;
15595;SDS011;7898;48.658;9.068;2022-07-29T04:15:50;8.40;;;7.57;;
15595;SDS011;7898;48.658;9.068;2022-07-29T04:18:17;11.68;;;7.47;;
15595;SDS011;7898;48.658;9.068;2022-07-29T04:20:44;8.70;;;7.88;;
15595;SDS011;7898;48.658;9.068;2022-07-29T04:23:11;7.65;;;7.03;;
15595;SDS011;7898;48.658;9.068;2022-07-29T04:25:38;8.55;;;7.75;;
15595;SDS011;7898;48.658;9.068;2022-07-29T04:28:05;8.40;;;7.60;;
15595;SDS011;7898;48.658;9.068;2022-07-29T04:30:34;8.90;;;8.10;;
15595;SDS011;7898;48.658;9.068;2022-07-29T04:33:03;8.93;;;8.07;;
15595;SDS011;7898;48.658;9.068;2022-07-29T04:35:33;8.45;;;7.60;;
15595;SDS011;7898;48.658;9.068;2022-07-29T04:38:01;9.25;;;8.50;;
15595;SDS011;7898;48.658;9.068;2022-07-29T04:40:28;12.05;;;8.88;;
15595;SDS011;7898;48.658;9.068;2022-07-29T04:42:55;9.20;;;8.40;;
15595;SDS011;7898;48.658;9.068;2022-07-29T04:45:22;8.93;;;8.13;;
15595;SDS011;7898;48.658;9.068;2022-07-29T04:47:50;9.55;;;8.75;;
15595;SDS011;7898;48.658;9.068;2022-07-29T04:50:17;9.15;;;8.35;;
15595;SDS011;7898;48.658;9.068;2022-07-29T04:52:44;9.75;;;8.93;;
15595;SDS011;7898;48.658;9.068;2022-07-29T04:55:10;9.75;;;8.75;;
15595;SDS011;7898;48.658;9.068;2022-07-29T04:57:37;10.93;;;8.48;;
15595;SDS011;7898;48.658;9.068;2022-07-29T05:00:06;8.77;;;7.97;;
15595;SDS011;7898;48.658;9.068;2022-07-29T05:02:34;9.07;;;8.27;;
15595;SDS011;7898;48.658;9.068;2022-07-29T05:05:02;9.52;;;8.23;;
15595;SDS011;7898;48.658;9.068;2022-07-29T05:07:30;8.48;;;7.68;;
15595;SDS011;7898;48.658;9.068;2022-07-29T05:09:56;9.73;;;8.60;;
15595;SDS011;7898;48.658;9.068;2022-07-29T05:12:23;9.52;;;8.73;;
15595;SDS011;7898;48.658;9.068;2022-07-29T05:14:51;8.70;;;8.00;;
15595;SDS011;7898;48.658;9.068;2022-07-29T05:17:18;9.23;;;8.43;;
15595;SDS011;7898;48.658;9.068;2022-07-29T05:19:45;12.85;;;9.00;;
15595;SDS011;7898;48.658;9.068;2022-07-29T05:22:13;10.52;;;8.65;;
15595;SDS011;7898;48.658;9.068;2022-07-29T05:24:40;9.43;;;8.63;;
15595;SDS011;7898;48.658;9.068;2022-07-29T05:27:07;9.27;;;8.48;;
15595;SDS011;7898;48.658;9.068;2022-07-29T05:29:34;8.35;;;7.60;;
15595;SDS011;7898;48.658;9.068;2022-07-29T05:32:02;8.10;;;7.30;;
15595;SDS011;7898;48.658;9.068;2022-07-29T05:34:29;8.43;;;7.63;;
15595;SDS011;7898;48.658;9.068;2022-07-29T05:36:56;7.80;;;7.10;;
15595;SDS011;7898;48.658;9.068;2022-07-29T05:39:25;7.55;;;6.75;;
15595;SDS011;7898;48.658;9.068;2022-07-29T05:41:51;8.90;;;7.63;;
15595;SDS011;7898;48.658;9.068;2022-07-29T05:44:18;7.78;;;7.07;;
15595;SDS011;7898;48.658;9.068;2022-07-29T05:46:45;9.02;;;8.13;;
15595;SDS011;7898;48.658;9.068;2022-07-29T05:49:12;12.25;;;7.57;;
15595;SDS011;7898;48.658;9.068;2022-07-29T05:51:40;9.40;;;7.35;;
15595;SDS011;7898;48.658;9.068;2022-07-29T05:54:07;9.43;;;8.15;;
15595;SDS011;7898;48.658;9.068;2022-07-29T05:56:36;8.50;;;7.70;;
15595;SDS011;7898;48.658;9.068;2022-07-29T05:59:03;8.00;;;7.30;;
15595;SDS011;7898;48.658;9.068;2022-07-29T06:01:30;8.60;;;7.80;;
15595;SDS011;7898;48.658;9.068;2022-07-29T06:03:57;7.88;;;7.18;;
15595;SDS011;7898;48.658;9.068;2022-07-29T06:06:24;8.82;;;7.70;;
15595;SDS011;7898;48.658;9.068;2022-07-29T06:08:51;8.57;;;6.75;;
15595;SDS011;7898;48.658;9.068;2022-07-29T06:11:18;7.20;;;6.55;;
15595;SDS011;7898;48.658;9.068;2022-07-29T06:13:46;8.52;;;6.65;;
15595;SDS011;7898;48.658;9.068;2022-07-29T06:16:13;7.88;;;7.15;;
15595;SDS011;7898;48.658;9.068;2022-07-29T06:18:40;7.80;;;7.05;;
15595;SDS011;7898;48.658;9.068;2022-07-29T06:21:07;9.77;;;7.78;;
15595;SDS011;7898;48.658;9.068;2022-07-29T06:23:35;7.65;;;6.95;;
15595;SDS011;7898;48.658;9.068;2022-07-29T06:26:03;7.28;;;6.68;;
15595;SDS011;7898;48.658;9.068;2022-07-29T06:28:30;6.50;;;5.95;;
15595;SDS011;7898;48.658;9.068;2022-07-29T06:30:58;7.88;;;6.05;;
15595;SDS011;7898;48.658;9.068;2022-07-29T06:33:25;5.68;;;5.20;;
15595;SDS011;7898;48.658;9.068;2022-07-29T06:35:52;6.60;;;5.07;;
15595;SDS011;7898;48.658;9.068;2022-07-29T06:38:19;6.00;;;5.40;;
15595;SDS011;7898;48.658;9.068;2022-07-29T06:40:46;5.80;;;4.93;;
15595;SDS011;7898;48.658;9.068;2022-07-29T06:43:26;8.40;;;5.68;;
15595;SDS011;7898;48.658;9.068;2022-07-29T06:45:54;6.28;;;4.97;;
15595;SDS011;7898;48.658;9.068;2022-07-29T06:48:23;5.72;;;5.22;;
15595;SDS011;7898;48.658;9.068;2022-07-29T06:50:50;5.95;;;5.45;;
15595;SDS011;7898;48.658;9.068;2022-07-29T06:53:16;5.82;;;5.07;;
15595;SDS011;7898;48.658;9.068;2022-07-29T06:55:43;5.68;;;5.22;;
15595;SDS011;7898;48.658;9.068;2022-07-29T06:58:10;6.07;;;5.57;;
15595;SDS011;7898;48.658;9.068;2022-07-29T07:00:39;6.03;;;5.53;;
15595;SDS011;7898;48.658;9.068;2022-07-29T07:03:06;6.20;;;5.60;;
15595;SDS011;7898;48.658;9.068;2022-07-29T07:05:34;6.65;;;5.90;;
15595;SDS011;7898;48.658;9.068;2022-07-29T07:08:01;6.85;;;6.00;;
15595;SDS011;7898;48.658;9.068;2022-07-29T07:10:28;6.20;;;5.70;;
15595;SDS011;7898;48.658;9.068;2022-07-29T07:12:55;6.85;;;5.65;;
15595;SDS011;7898;48.658;9.068;2022-07-29T07:15:22;7.63;;;4.97;;
15595;SDS011;7898;48.658;9.068;2022-07-29T07:17:48;7.30;;;5.15;;
15595;SDS011;7898;48.658;9.068;2022-07-29T07:20:15;7.18;;;5.68;;
15595;SDS011;7898;48.658;9.068;2022-07-29T07:22:44;7.20;;;6.47;;
15595;SDS011;7898;48.658;9.068;2022-07-29T07:25:11;7.15;;;5.63;;
15595;SDS011;7898;48.658;9.068;2022-07-29T07:27:39;6.13;;;5.60;;
15595;SDS011;7898;48.658;9.068;2022-07-29T07:30:08;6.15;;;5.65;;
15595;SDS011;7898;48.658;9.068;2022-07-29T07:32:35;6.32;;;5.72;;
15595;SDS011;7898;48.658;9.068;2022-07-29T07:35:03;6.05;;;5.45;;
15595;SDS011;7898;48.658;9.068;2022-07-29T07:37:30;7.47;;;5.60;;
15595;SDS011;7898;48.658;9.068;2022-07-29T07:39:59;5.70;;;5.20;;
15595;SDS011;7898;48.658;9.068;2022-07-29T07:42:26;6.47;;;5.40;;
15595;SDS011;7898;48.658;9.068;2022-07-29T07:44:53;5.97;;;5.32;;
15595;SDS011;7898;48.658;9.068;2022-07-29T07:47:20;5.88;;;5.32;;
15595;SDS011;7898;48.658;9.068;2022-07-29T07:49:48;6.90;;;6.10;;
15595;SDS011;7898;48.658;9.068;2022-07-29T07:52:16;7.13;;;6.20;;
15595;SDS011;7898;48.658;9.068;2022-07-29T07:54:45;6.43;;;5.82;;
15595;SDS011;7898;48.658;9.068;2022-07-29T07:57:14;9.38;;;6.38;;
15595;SDS011;7898;48.658;9.068;2022-07-29T07:59:41;6.65;;;6.05;;
15595;SDS011;7898;48.658;9.068;2022-07-29T08:02:08;8.75;;;6.88;;
15595;SDS011;7898;48.658;9.068;2022-07-29T08:04:36;7.22;;;6.57;;
15595;SDS011;7898;48.658;9.068;2022-07-29T08:07:05;7.40;;;6.38;;
15595;SDS011;7898;48.658;9.068;2022-07-29T08:09:32;7.05;;;6.35;;
15595;SDS011;7898;48.658;9.068;2022-07-29T08:12:00;7.25;;;6.55;;
15595;SDS011;7898;48.658;9.068;2022-07-29T08:14:30;9.02;;;6.45;;
15595;SDS011;7898;48.658;9.068;2022-07-29T08:16:57;7.57;;;6.70;;
15595;SDS011;7898;48.658;9.068;2022-07-29T08:19:24;6.93;;;6.35;;
15595;SDS011;7898;48.658;9.068;2022-07-29T08:21:51;8.38;;;6.35;;
15595;SDS011;7898;48.658;9.068;2022-07-29T08:24:18;7.57;;;6.65;;
15595;SDS011;7898;48.658;9.068;2022-07-29T08:27:03;7.70;;;6.60;;
15595;SDS011;7898;48.658;9.068;2022-07-29T08:29:31;6.63;;;5.93;;
15595;SDS011;7898;48.658;9.068;2022-07-29T08:31:58;8.07;;;6.28;;
15595;SDS011;7898;48.658;9.068;2022-07-29T08:34:25;8.18;;;6.38;;
15595;SDS011;7898;48.658;9.068;2022-07-29T08:36:53;6.70;;;5.95;;
15595;SDS011;7898;48.658;9.068;2022-07-29T08:39:20;8.60;;;6.47;;
15595;SDS011;7898;48.658;9.068;2022-07-29T08:41:47;6.32;;;5.78;;
15595;SDS011;7898;48.658;9.068;2022-07-29T08:44:15;7.72;;;7.00;;
15595;SDS011;7898;48.658;9.068;2022-07-29T08:46:44;7.70;;;6.30;;
15595;SDS011;7898;48.658;9.068;2022-07-29T08:49:11;6.82;;;6.20;;
15595;SDS011;7898;48.658;9.068;2022-07-29T08:51:39;7.28;;;5.88;;
15595;SDS011;7898;48.658;9.068;2022-07-29T08:54:08;6.85;;;6.00;;
15595;SDS011;7898;48.658;9.068;2022-07-29T08:56:35;6.75;;;6.15;;
15595;SDS011;7898;48.658;9.068;2022-07-29T08:59:04;6.63;;;5.90;;
15595;SDS011;7898;48.658;9.068;2022-07-29T09:01:32;9.32;;;6.25;;
15595;SDS011;7898;48.658;9.068;2022-07-29T09:04:04;6.97;;;6.35;;
15595;SDS011;7898;48.658;9.068;2022-07-29T09:06:36;6.55;;;5.88;;
15595;SDS011;7898;48.658;9.068;2022-07-29T09:09:07;7.13;;;6.10;;
15595;SDS011;7898;48.658;9.068;2022-07-29T09:11:34;6.70;;;6.10;;
15595;SDS011;7898;48.658;9.068;2022-07-29T09:14:02;6.50;;;5.80;;
15595;SDS011;7898;48.658;9.068;2022-07-29T09:16:43;7.82;;;6.38;;
15595;SDS011;7898;48.658;9.068;2022-07-29T09:19:26;8.98;;;6.43;;
15595;SDS011;7898;48.658;9.068;2022-07-29T09:21:54;8.70;;;6.20;;
15595;SDS011;7898;48.658;9.068;2022-07-29T09:24:36;6.90;;;5.80;;
15595;SDS011;7898;48.658;9.068;2022-07-29T09:27:12;7.88;;;6.00;;
15595;SDS011;7898;48.658;9.068;2022-07-29T09:29:46;6.38;;;5.78;;
15595;SDS011;7898;48.658;9.068;2022-07-29T09:32:20;6.68;;;6.07;;
15595;SDS011;7898;48.658;9.068;2022-07-29T09:34:49;7.05;;;6.25;;
15595;SDS011;7898;48.658;9.068;2022-07-29T09:37:25;9.00;;;6.13;;
15595;SDS011;7898;48.658;9.068;2022-07-29T09:39:52;6.70;;;6.07;;
15595;SDS011;7898;48.658;9.068;2022-07-29T09:42:27;7.25;;;6.63;;
15595;SDS011;7898;48.658;9.068;2022-07-29T09:44:54;7.60;;;6.65;;
15595;SDS011;7898;48.658;9.068;2022-07-29T09:47:21;8.52;;;6.13;;
15595;SDS011;7898;48.658;9.068;2022-07-29T09:49:53;6.57;;;5.93;;
15595;SDS011;7898;48.658;9.068;2022-07-29T09:52:23;7.43;;;5.72;;
15595;SDS011;7898;48.658;9.068;2022-07-29T09:54:50;7.78;;;6.13;;
15595;SDS011;7898;48.658;9.068;2022-07-29T09:57:25;7.63;;;6.82;;
15595;SDS011;7898;48.658;9.068;2022-07-29T09:59:57;7.10;;;6.50;;
15595;SDS011;7898;48.658;9.068;2022-07-29T10:02:29;7.32;;;6.68;;
15595;SDS011;7898;48.658;9.068;2022-07-29T10:04:58;7.40;;;6.57;;
15595;SDS011;7898;48.658;9.068;2022-07-29T10:07:26;7.03;;;6.43;;
15595;SDS011;7898;48.658;9.068;2022-07-29T10:10:08;7.70;;;6.47;;
15595;SDS011;7898;48.658;9.068;2022-07-29T10:12:39;7.10;;;6.45;;
15595;SDS011;7898;48.658;9.068;2022-07-29T10:15:16;7.45;;;6.55;;
15595;SDS011;7898;48.658;9.068;2022-07-29T10:17:43;6.55;;;5.95;;
15595;SDS011;7898;48.658;9.068;2022-07-29T10:20:12;6.78;;;6.28;;
15595;SDS011;7898;48.658;9.068;2022-07-29T10:22:40;6.40;;;5.80;;
15595;SDS011;7898;48.658;9.068;2022-07-29T10:25:07;8.15;;;6.40;;
15595;SDS011;7898;48.658;9.068;2022-07-29T10:27:35;7.78;;;6.55;;
15595;SDS011;7898;48.658;9.068;2022-07-29T10:30:03;7.03;;;6.40;;
15595;SDS011;7898;48.658;9.068;2022-07-29T10:32:43;6.93;;;6.20;;
15595;SDS011;7898;48.658;9.068;2022-07-29T10:35:31;7.78;;;5.57;;
15595;SDS011;7898;48.658;9.068;2022-07-29T10:38:13;8.43;;;6.20;;
15595;SDS011;7898;48.658;9.068;2022-07-29T10:40:59;6.65;;;6.03;;
15595;SDS011;7898;48.658;9.068;2022-07-29T10:43:57;6.63;;;6.03;;
15595;SDS011;7898;48.658;9.068;2022-07-29T10:46:26;6.00;;;5.40;;
15595;SDS011;7898;48.658;9.068;2022-07-29T10:49:10;5.88;;;5.35;;
15595;SDS011;7898;48.658;9.068;2022-07-29T10:51:53;8.40;;;6.03;;
15595;SDS011;7898;48.658;9.068;2022-07-29T10:57:20;6.90;;;6.30;;
15595;SDS011;7898;48.658;9.068;2022-07-29T10:59:51;7.50;;;6.32;;
15595;SDS011;7898;48.658;9.068;2022-07-29T11:02:40;11.65;;;6.95;;
15595;SDS011;7898;48.658;9.068;2022-07-29T11:05:13;8.40;;;7.28;;
15595;SDS011;7898;48.658;9.068;2022-07-29T11:10:44;9.70;;;7.95;;
15595;SDS011;7898;48.658;9.068;2022-07-29T11:13:11;8.68;;;7.82;;
15595;SDS011;7898;48.658;9.068;2022-07-29T11:15:51;7.80;;;6.60;;
15595;SDS011;7898;48.658;9.068;2022-07-29T11:18:19;9.95;;;7.47;;
15595;SDS011;7898;48.658;9.068;2022-07-29T11:20:47;8.98;;;6.85;;
15595;SDS011;7898;48.658;9.068;2022-07-29T11:23:18;12.30;;;7.60;;
15595;SDS011;7898;48.658;9.068;2022-07-29T11:28:56;12.10;;;7.60;;
15595;SDS011;7898;48.658;9.068;2022-07-29T11:31:33;9.65;;;7.78;;
15595;SDS011;7898;48.658;9.068;2022-07-29T11:34:16;10.73;;;7.63;;
15595;SDS011;7898;48.658;9.068;2022-07-29T11:39:44;8.70;;;6.30;;
15595;SDS011;7898;48.658;9.068;2022-07-29T11:45:06;12.35;;;6.47;;
15595;SDS011;7898;48.658;9.068;2022-07-29T11:47:35;9.07;;;6.43;;
15595;SDS011;7898;48.658;9.068;2022-07-29T11:50:04;10.40;;;7.40;;
15595;SDS011;7898;48.658;9.068;2022-07-29T11:52:34;8.80;;;7.03;;
15595;SDS011;7898;48.658;9.068;2022-07-29T11:55:03;7.88;;;6.97;;
15595;SDS011;7898;48.658;9.068;2022-07-29T11:57:31;8.82;;;7.00;;
15595;SDS011;7898;48.658;9.068;2022-07-29T12:00:02;7.88;;;6.20;;
15595;SDS011;7898;48.658;9.068;2022-07-29T12:02:40;7.32;;;5.68;;
15595;SDS011;7898;48.658;9.068;2022-07-29T12:05:08;8.70;;;5.85;;
15595;SDS011;7898;48.658;9.068;2022-07-29T12:07:36;8.23;;;6.68;;
15595;SDS011;7898;48.658;9.068;2022-07-29T12:10:05;9.15;;;6.63;;
15595;SDS011;7898;48.658;9.068;2022-07-29T12:12:33;8.73;;;7.25;;
15595;SDS011;7898;48.658;9.068;2022-07-29T12:15:12;7.85;;;6.97;;
15595;SDS011;7898;48.658;9.068;2022-07-29T12:17:40;8.25;;;7.00;;
15595;SDS011;7898;48.658;9.068;2022-07-29T12:20:08;8.52;;;7.30;;
15595;SDS011;7898;48.658;9.068;2022-07-29T12:22:36;8.75;;;6.60;;
15595;SDS011;7898;48.658;9.068;2022-07-29T12:25:06;10.32;;;7.63;;
15595;SDS011;7898;48.658;9.068;2022-07-29T12:27:34;9.13;;;8.25;;
15595;SDS011;7898;48.658;9.068;2022-07-29T12:30:04;10.02;;;9.02;;
15595;SDS011;7898;48.658;9.068;2022-07-29T12:32:35;11.00;;;8.90;;
15595;SDS011;7898;48.658;9.068;2022-07-29T12:35:03;13.00;;;8.70;;
15595;SDS011;7898;48.658;9.068;2022-07-29T12:37:32;11.48;;;9.80;;
15595;SDS011;7898;48.658;9.068;2022-07-29T12:40:00;10.93;;;9.75;;
15595;SDS011;7898;48.658;9.068;2022-07-29T12:42:28;9.60;;;8.68;;
15595;SDS011;7898;48.658;9.068;2022-07-29T12:44:55;13.00;;;8.88;;
15595;SDS011;7898;48.658;9.068;2022-07-29T12:47:22;10.70;;;9.60;;
15595;SDS011;7898;48.658;9.068;2022-07-29T12:49:52;12.45;;;9.75;;
15595;SDS011;7898;48.658;9.068;2022-07-29T12:52:34;11.25;;;9.70;;
15595;SDS011;7898;48.658;9.068;2022-07-29T12:55:01;11.18;;;9.40;;
15595;SDS011;7898;48.658;9.068;2022-07-29T12:57:30;11.05;;;9.38;;
15595;SDS011;7898;48.658;9.068;2022-07-29T13:00:02;12.32;;;9.13;;
15595;SDS011;7898;48.658;9.068;2022-07-29T13:02:32;10.50;;;8.65;;
15595;SDS011;7898;48.658;9.068;2022-07-29T13:05:01;11.40;;;8.48;;
15595;SDS011;7898;48.658;9.068;2022-07-29T13:07:29;8.48;;;7.32;;
15595;SDS011;7898;48.658;9.068;2022-07-29T13:10:09;9.90;;;8.90;;
15595;SDS011;7898;48.658;9.068;2022-07-29T13:12:38;10.90;;;8.38;;
15595;SDS011;7898;48.658;9.068;2022-07-29T13:15:12;8.23;;;7.45;;
15595;SDS011;7898;48.658;9.068;2022-07-29T13:17:40;10.90;;;8.43;;
15595;SDS011;7898;48.658;9.068;2022-07-29T13:20:10;10.35;;;9.35;;
15595;SDS011;7898;48.658;9.068;2022-07-29T13:22:39;10.52;;;9.25;;
15595;SDS011;7898;48.658;9.068;2022-07-29T13:25:07;11.32;;;10.20;;
15595;SDS011;7898;48.658;9.068;2022-07-29T13:27:36;11.93;;;10.45;;
15595;SDS011;7898;48.658;9.068;2022-07-29T13:30:05;11.50;;;10.40;;
15595;SDS011;7898;48.658;9.068;2022-07-29T13:32:34;10.80;;;9.75;;
15595;SDS011;7898;48.658;9.068;2022-07-29T13:35:03;13.52;;;9.80;;
15595;SDS011;7898;48.658;9.068;2022-07-29T13:37:34;13.13;;;10.23;;
15595;SDS011;7898;48.658;9.068;2022-07-29T13:40:03;12.88;;;10.98;;
15595;SDS011;7898;48.658;9.068;2022-07-29T13:42:32;12.90;;;11.70;;
15595;SDS011;7898;48.658;9.068;2022-07-29T13:44:59;11.52;;;10.43;;
15595;SDS011;7898;48.658;9.068;2022-07-29T13:47:26;10.25;;;9.25;;
15595;SDS011;7898;48.658;9.068;2022-07-29T13:49:53;9.90;;;8.90;;
15595;SDS011;7898;48.658;9.068;2022-07-29T13:52:21;10.30;;;9.30;;
15595;SDS011;7898;48.658;9.068;2022-07-29T13:54:49;11.57;;;10.48;;
15595;SDS011;7898;48.658;9.068;2022-07-29T13:57:16;9.88;;;9.02;;
15595;SDS011;7898;48.658;9.068;2022-07-29T13:59:44;10.23;;;9.13;;
15595;SDS011;7898;48.658;9.068;2022-07-29T14:02:11;10.73;;;9.63;;
15595;SDS011;7898;48.658;9.068;2022-07-29T14:04:38;11.65;;;10.40;;
15595;SDS011;7898;48.658;9.068;2022-07-29T14:07:05;10.75;;;9.32;;
15595;SDS011;7898;48.658;9.068;2022-07-29T14:09:33;11.60;;;10.50;;
15595;SDS011;7898;48.658;9.068;2022-07-29T14:12:01;11.80;;;10.18;;
15595;SDS011;7898;48.658;9.068;2022-07-29T14:14:28;11.07;;;9.98;;
15595;SDS011;7898;48.658;9.068;2022-07-29T14:16:56;11.15;;;10.13;;
15595;SDS011;7898;48.658;9.068;2022-07-29T14:19:23;11.77;;;10.30;;
15595;SDS011;7898;48.658;9.068;2022-07-29T14:21:50;11.45;;;9.95;;
15595;SDS011;7898;48.658;9.068;2022-07-29T14:24:17;11.70;;;10.50;;
15595;SDS011;7898;48.658;9.068;2022-07-29T14:26:44;12.35;;;11.15;;
15595;SDS011;7898;48.658;9.068;2022-07-29T14:29:13;10.00;;;8.38;;
15595;SDS011;7898;48.658;9.068;2022-07-29T14:31:39;11.10;;;9.85;;
15595;SDS011;7898;48.658;9.068;2022-07-29T14:34:08;11.73;;;10.63;;
15595;SDS011;7898;48.658;9.068;2022-07-29T14:36:34;11.35;;;10.25;;
15595;SDS011;7898;48.658;9.068;2022-07-29T14:39:01;10.73;;;9.70;;
15595;SDS011;7898;48.658;9.068;2022-07-29T14:41:29;10.93;;;9.63;;
15595;SDS011;7898;48.658;9.068;2022-07-29T14:43:56;11.50;;;10.50;;
15595;SDS011;7898;48.658;9.068;2022-07-29T14:46:27;12.85;;;10.48;;
15595;SDS011;7898;48.658;9.068;2022-07-29T14:48:54;12.60;;;11.30;;
15595;SDS011;7898;48.658;9.068;2022-07-29T14:51:21;13.32;;;11.30;;
15595;SDS011;7898;48.658;9.068;2022-07-29T14:53:48;10.38;;;9.48;;
15595;SDS011;7898;48.658;9.068;2022-07-29T14:56:15;10.18;;;9.18;;
15595;SDS011;7898;48.658;9.068;2022-07-29T14:58:42;9.70;;;8.75;;
15595;SDS011;7898;48.658;9.068;2022-07-29T15:01:09;10.50;;;9.40;;
15595;SDS011;7898;48.658;9.068;2022-07-29T15:03:37;11.05;;;10.15;;
15595;SDS011;7898;48.658;9.068;2022-07-29T15:06:04;11.85;;;10.75;;
15595;SDS011;7898;48.658;9.068;2022-07-29T15:08:31;12.07;;;11.07;;
15595;SDS011;7898;48.658;9.068;2022-07-29T15:10:58;12.20;;;10.98;;
15595;SDS011;7898;48.658;9.068;2022-07-29T15:13:25;12.02;;;10.98;;
15595;SDS011;7898;48.658;9.068;2022-07-29T15:15:52;11.40;;;10.30;;
15595;SDS011;7898;48.658;9.068;2022-07-29T15:18:19;10.18;;;9.27;;
15595;SDS011;7898;48.658;9.068;2022-07-29T15:20:48;12.27;;;9.68;;
15595;SDS011;7898;48.658;9.068;2022-07-29T15:23:15;11.25;;;10.25;;